createdAt,value
2022-08-17T00:02:25.470Z,13.37
2022-08-17T00:04:54.920Z,14.03
2022-08-17T00:07:22.167Z,13.97
2022-08-17T00:09:48.918Z,14.00
2022-08-17T00:12:40.695Z,13.23
2022-08-17T00:15:02.692Z,13.10
2022-08-17T00:17:29.331Z,14.50
2022-08-17T00:19:56.180Z,12.60
2022-08-17T00:22:31.671Z,14.27
2022-08-17T00:25:03.996Z,75.33
2022-08-17T00:27:30.647Z,20.53
2022-08-17T00:29:57.320Z,15.93
2022-08-17T00:33:15.124Z,13.70
2022-08-17T00:35:12.754Z,13.10
2022-08-17T00:37:39.702Z,13.77
2022-08-17T00:40:08.153Z,13.10
2022-08-17T00:42:35.485Z,14.00
2022-08-17T00:45:04.326Z,13.87
2022-08-17T00:47:31.137Z,13.60
2022-08-17T00:49:57.970Z,17.53
2022-08-17T00:52:30.321Z,14.77
2022-08-17T00:54:57.457Z,17.80
2022-08-17T00:57:29.913Z,16.50
2022-08-17T01:00:03.916Z,15.63
2022-08-17T01:02:41.979Z,14.67
2022-08-17T01:05:18.665Z,15.57
2022-08-17T01:07:46.830Z,15.60
2022-08-17T01:10:58.124Z,15.70
2022-08-17T01:13:04.787Z,17.03
2022-08-17T01:15:34.953Z,16.00
2022-08-17T01:18:01.886Z,18.00
2022-08-17T01:20:29.354Z,18.17
2022-08-17T01:22:56.121Z,18.10
2022-08-17T01:25:22.963Z,18.50
2022-08-17T01:27:50.040Z,18.67
2022-08-17T01:30:57.878Z,16.37
2022-08-17T01:33:04.334Z,18.00
2022-08-17T01:35:31.155Z,15.93
2022-08-17T01:37:57.788Z,17.00
2022-08-17T01:40:46.386Z,16.80
2022-08-17T01:43:26.696Z,17.33
2022-08-17T01:46:03.152Z,16.77
2022-08-17T01:48:35.701Z,17.10
2022-08-17T01:51:02.741Z,16.70
2022-08-17T01:53:34.765Z,18.37
2022-08-17T01:56:07.822Z,17.17
2022-08-17T01:58:36.025Z,17.80
2022-08-17T02:01:04.566Z,17.03
2022-08-17T02:03:31.892Z,18.63
2022-08-17T02:05:58.738Z,18.50
2022-08-17T02:08:37.002Z,17.10
2022-08-17T02:11:11.544Z,17.50
2022-08-17T02:13:38.852Z,16.53
2022-08-17T02:16:05.866Z,17.60
2022-08-17T02:18:32.574Z,15.77
2022-08-17T02:20:59.623Z,17.27
2022-08-17T02:23:29.286Z,15.53
2022-08-17T02:25:58.598Z,18.00
2022-08-17T02:28:25.625Z,16.57
2022-08-17T02:31:01.228Z,15.37
2022-08-17T02:33:43.162Z,15.90
2022-08-17T02:36:12.578Z,16.23
2022-08-17T02:38:40.592Z,16.67
2022-08-17T02:41:07.522Z,17.50
2022-08-17T02:43:34.408Z,17.07
2022-08-17T02:46:01.155Z,17.00
2022-08-17T02:48:31.024Z,19.00
2022-08-17T02:50:59.633Z,17.30
2022-08-17T02:53:26.521Z,16.77
2022-08-17T02:55:53.625Z,18.70
2022-08-17T02:58:35.553Z,14.90
2022-08-17T03:01:05.931Z,19.40
2022-08-17T03:03:33.026Z,17.67
2022-08-17T03:05:59.707Z,18.60
2022-08-17T03:08:26.898Z,17.40
2022-08-17T03:10:53.787Z,17.17
2022-08-17T03:13:20.760Z,17.90
2022-08-17T03:15:48.808Z,18.00
2022-08-17T03:18:19.342Z,20.30
2022-08-17T03:20:58.667Z,19.90
2022-08-17T03:23:27.282Z,21.13
2022-08-17T03:25:55.120Z,21.10
2022-08-17T03:28:22.695Z,22.53
2022-08-17T03:30:51.130Z,21.07
2022-08-17T03:33:18.673Z,21.57
2022-08-17T03:35:45.565Z,20.03
2022-08-17T03:38:15.125Z,18.77
2022-08-17T03:40:57.810Z,21.13
2022-08-17T03:43:30.573Z,18.87
2022-08-17T03:46:34.637Z,19.80
2022-08-17T03:49:26.177Z,18.43
2022-08-17T03:52:15.919Z,22.63
2022-08-17T03:55:02.786Z,20.53
2022-08-17T03:57:30.126Z,21.90
2022-08-17T03:59:56.929Z,21.03
2022-08-17T04:02:29.366Z,22.27
2022-08-17T04:04:57.133Z,23.07
2022-08-17T04:07:27.485Z,23.50
2022-08-17T04:09:54.276Z,20.40
2022-08-17T04:12:23.289Z,20.33
2022-08-17T04:14:52.929Z,22.80
2022-08-17T04:17:27.181Z,23.57
2022-08-17T04:19:55.188Z,22.07
2022-08-17T04:22:30.582Z,23.43
2022-08-17T04:25:14.311Z,22.57
2022-08-17T04:27:40.962Z,21.20
2022-08-17T04:30:08.321Z,21.10
2022-08-17T04:33:10.487Z,21.50
2022-08-17T04:35:40.143Z,22.57
2022-08-17T04:38:09.695Z,22.17
2022-08-17T04:40:55.652Z,23.60
2022-08-17T04:43:24.176Z,23.20
2022-08-17T04:45:57.215Z,22.83
2022-08-17T04:48:34.725Z,22.23
2022-08-17T04:51:07.137Z,22.23
2022-08-17T04:53:33.875Z,24.37
2022-08-17T04:56:00.519Z,23.33
2022-08-17T04:58:27.233Z,23.83
2022-08-17T05:00:53.977Z,24.83
2022-08-17T05:03:20.704Z,25.27
2022-08-17T05:05:49.517Z,24.17
2022-08-17T05:08:18.834Z,24.47
2022-08-17T05:10:45.970Z,25.40
2022-08-17T05:13:19.057Z,23.70
2022-08-17T05:15:48.203Z,23.37
2022-08-17T05:18:16.464Z,25.13
2022-08-17T05:20:44.235Z,23.07
2022-08-17T05:23:13.731Z,24.10
2022-08-17T05:25:47.502Z,23.97
2022-08-17T05:28:15.911Z,24.03
2022-08-17T05:30:44.710Z,23.70
2022-08-17T05:33:22.462Z,25.53
2022-08-17T05:35:52.331Z,26.17
2022-08-17T05:38:21.617Z,24.43
2022-08-17T05:40:48.521Z,24.40
2022-08-17T05:43:22.069Z,27.13
2022-08-17T05:46:03.617Z,25.37
2022-08-17T05:48:39.562Z,26.47
2022-08-17T05:51:37.844Z,24.30
2022-08-17T05:54:35.461Z,24.17
2022-08-17T05:57:16.870Z,26.07
2022-08-17T06:00:07.243Z,24.57
2022-08-17T06:03:04.825Z,23.50
2022-08-17T06:05:55.687Z,23.77
2022-08-17T06:08:36.444Z,22.27
2022-08-17T06:11:19.890Z,23.40
2022-08-17T06:14:14.112Z,23.40
2022-08-17T06:16:45.489Z,22.57
2022-08-17T06:19:22.755Z,21.57
2022-08-17T06:21:53.455Z,23.10
2022-08-17T06:24:28.621Z,22.07
2022-08-17T06:27:07.351Z,21.47
2022-08-17T06:30:02.077Z,21.23
2022-08-17T06:32:29.250Z,20.17
2022-08-17T06:34:57.485Z,21.33
2022-08-17T06:37:53.862Z,20.13
2022-08-17T06:40:37.279Z,19.67
2022-08-17T06:43:25.205Z,19.87
2022-08-17T06:46:04.067Z,21.00
2022-08-17T06:48:42.608Z,18.17
2022-08-17T06:51:28.226Z,20.10
2022-08-17T06:54:14.612Z,18.00
2022-08-17T06:57:19.535Z,18.27
2022-08-17T07:00:08.945Z,16.33
2022-08-17T07:03:06.701Z,17.00
2022-08-17T07:05:51.800Z,17.23
2022-08-17T07:08:30.468Z,16.20
2022-08-17T07:11:03.032Z,16.07
2022-08-17T07:13:51.604Z,16.37
2022-08-17T07:16:32.439Z,16.20
2022-08-17T07:18:59.931Z,14.77
2022-08-17T07:21:38.488Z,15.43
2022-08-17T07:24:39.468Z,16.27
2022-08-17T07:27:10.964Z,14.70
2022-08-17T07:29:41.215Z,14.10
2022-08-17T07:32:11.043Z,13.73
2022-08-17T07:35:11.270Z,14.03
2022-08-17T07:38:02.351Z,15.10
2022-08-17T07:40:36.642Z,13.27
2022-08-17T07:43:06.495Z,13.70
2022-08-17T07:45:53.150Z,11.10
2022-08-17T07:48:23.414Z,11.40
2022-08-17T07:50:53.097Z,11.87
2022-08-17T07:53:23.674Z,12.27
2022-08-17T07:55:51.591Z,11.50
2022-08-17T07:58:21.982Z,12.37
2022-08-17T08:01:11.223Z,10.60
2022-08-17T08:03:44.045Z,10.37
2022-08-17T08:06:23.143Z,10.40
2022-08-17T08:08:55.646Z,10.13
2022-08-17T08:11:38.352Z,9.87
2022-08-17T08:14:39.527Z,9.60
2022-08-17T08:17:09.386Z,9.93
2022-08-17T08:19:36.564Z,8.50
2022-08-17T08:22:17.488Z,8.50
2022-08-17T08:25:29.143Z,7.97
2022-08-17T08:28:19.906Z,9.30
2022-08-17T08:30:52.670Z,7.97
2022-08-17T08:33:47.854Z,7.47
2022-08-17T08:37:13.065Z,7.90
2022-08-17T08:39:21.327Z,7.63
2022-08-17T08:42:10.626Z,7.03
2022-08-17T08:45:00.296Z,6.40
2022-08-17T08:47:50.689Z,6.43
2022-08-17T08:50:30.178Z,6.87
2022-08-17T08:53:18.856Z,6.23
2022-08-17T08:55:55.498Z,7.10
2022-08-17T08:58:50.553Z,6.60
2022-08-17T09:01:53.499Z,7.20
2022-08-17T09:05:12.826Z,6.20
2022-08-17T09:08:13.060Z,6.40
2022-08-17T09:11:05.934Z,5.80
2022-08-17T09:13:57.308Z,5.77
2022-08-17T09:16:36.351Z,5.60
2022-08-17T09:19:35.199Z,5.70
2022-08-17T09:22:24.524Z,5.90
2022-08-17T09:25:23.332Z,5.73
2022-08-17T09:27:52.972Z,6.50
2022-08-17T09:30:20.900Z,5.80
2022-08-17T09:32:56.319Z,5.20
2022-08-17T09:35:32.924Z,6.20
2022-08-17T09:38:32.581Z,5.97
2022-08-17T09:41:05.549Z,6.50
2022-08-17T09:43:54.342Z,6.30
2022-08-17T09:46:40.860Z,6.60
2022-08-17T09:49:28.507Z,6.33
2022-08-17T09:52:02.311Z,5.80
2022-08-17T09:54:39.116Z,6.73
2022-08-17T09:57:29.129Z,6.00
2022-08-17T10:00:16.684Z,6.60
2022-08-17T10:03:02.988Z,6.10
2022-08-17T10:05:37.645Z,7.57
2022-08-17T10:08:29.382Z,6.90
2022-08-17T10:11:33.346Z,6.20
2022-08-17T10:14:36.399Z,5.37
2022-08-17T10:17:05.604Z,6.17
2022-08-17T10:19:37.340Z,6.90
2022-08-17T10:22:35.289Z,5.60
2022-08-17T10:25:30.200Z,6.40
2022-08-17T10:28:19.919Z,5.30
2022-08-17T10:30:51.126Z,6.10
2022-08-17T10:33:27.113Z,6.30
2022-08-17T10:36:17.626Z,6.30
2022-08-17T10:38:57.015Z,5.73
2022-08-17T10:41:24.384Z,6.57
2022-08-17T10:44:39.648Z,5.90
2022-08-17T10:47:17.278Z,7.10
2022-08-17T10:49:53.611Z,6.30
2022-08-17T10:52:20.286Z,6.53
2022-08-17T10:54:54.880Z,6.13
2022-08-17T10:57:33.857Z,5.63
2022-08-17T11:00:15.521Z,5.87
2022-08-17T11:03:01.032Z,6.20
2022-08-17T11:05:43.809Z,7.63
2022-08-17T11:08:41.215Z,6.60
2022-08-17T11:11:34.345Z,6.70
2022-08-17T11:14:14.009Z,5.70
2022-08-17T11:16:53.229Z,5.80
2022-08-17T11:19:41.354Z,5.53
2022-08-17T11:22:16.640Z,5.83
2022-08-17T11:24:53.284Z,5.30
2022-08-17T11:27:27.053Z,7.10
2022-08-17T11:30:02.460Z,5.17
2022-08-17T11:32:54.499Z,5.60
2022-08-17T11:35:21.489Z,5.07
2022-08-17T11:38:18.416Z,5.30
2022-08-17T11:41:07.014Z,5.30
2022-08-17T11:43:42.894Z,5.53
2022-08-17T11:46:15.474Z,5.50
2022-08-17T11:49:21.504Z,6.20
2022-08-17T11:52:00.345Z,5.83
2022-08-17T11:54:33.684Z,5.80
2022-08-17T11:57:27.259Z,5.57
2022-08-17T12:00:00.939Z,5.20
2022-08-17T12:02:32.691Z,4.90
2022-08-17T12:05:14.369Z,6.20
2022-08-17T12:07:45.047Z,5.83
2022-08-17T12:10:13.446Z,6.60
2022-08-17T12:12:44.152Z,6.83
2022-08-17T12:15:19.714Z,5.43
2022-08-17T12:17:54.754Z,6.03
2022-08-17T12:20:37.428Z,5.67
2022-08-17T12:23:20.089Z,5.53
2022-08-17T12:25:56.855Z,5.37
2022-08-17T12:28:29.765Z,5.03
2022-08-17T12:31:02.257Z,6.13
2022-08-17T12:33:29.583Z,6.33
2022-08-17T12:36:06.206Z,5.53
2022-08-17T12:38:36.158Z,6.50
2022-08-17T12:41:24.755Z,6.30
2022-08-17T12:44:02.061Z,6.17
2022-08-17T12:46:45.261Z,4.90
2022-08-17T12:49:12.935Z,5.73
2022-08-17T12:51:44.241Z,4.90
2022-08-17T12:54:24.006Z,5.40
2022-08-17T12:56:50.741Z,5.50
2022-08-17T12:59:18.848Z,4.90
2022-08-17T13:01:57.554Z,5.40
2022-08-17T13:04:24.486Z,5.57
2022-08-17T13:06:59.671Z,5.00
2022-08-17T13:09:35.958Z,5.23
2022-08-17T13:12:07.950Z,5.57
2022-08-17T13:14:35.257Z,5.13
2022-08-17T13:17:06.305Z,5.40
2022-08-17T13:19:41.401Z,5.80
2022-08-17T13:22:12.420Z,5.50
2022-08-17T13:25:00.945Z,5.43
2022-08-17T13:27:29.914Z,4.90
2022-08-17T13:30:00.853Z,4.90
2022-08-17T13:32:31.009Z,5.60
2022-08-17T13:35:15.377Z,6.00
2022-08-17T13:38:03.115Z,5.30
2022-08-17T13:40:41.691Z,5.30
2022-08-17T13:43:09.302Z,5.50
2022-08-17T13:45:43.402Z,5.90
2022-08-17T13:48:21.767Z,5.83
2022-08-17T13:51:05.695Z,6.17
2022-08-17T13:53:38.094Z,5.13
2022-08-17T13:56:31.718Z,5.50
2022-08-17T13:59:01.771Z,5.50
2022-08-17T14:01:31.710Z,5.47
2022-08-17T14:04:00.243Z,5.87
2022-08-17T14:06:51.799Z,5.13
2022-08-17T14:09:20.509Z,5.10
2022-08-17T14:11:48.989Z,5.70
2022-08-17T14:14:16.811Z,4.87
2022-08-17T14:16:43.672Z,5.20
2022-08-17T14:19:12.771Z,5.80
2022-08-17T14:21:46.139Z,5.40
2022-08-17T14:24:25.447Z,6.30
2022-08-17T14:26:55.770Z,6.13
2022-08-17T14:29:24.343Z,5.33
2022-08-17T14:31:54.273Z,5.97
2022-08-17T14:34:23.387Z,5.90
2022-08-17T14:36:50.420Z,5.50
2022-08-17T14:39:17.967Z,5.97
2022-08-17T14:41:44.818Z,6.57
2022-08-17T14:44:12.796Z,5.93
2022-08-17T14:46:40.959Z,5.67
2022-08-17T14:49:08.964Z,5.57
2022-08-17T14:51:43.637Z,6.67
2022-08-17T14:54:33.321Z,5.53
2022-08-17T14:57:08.651Z,5.53
2022-08-17T14:59:47.063Z,5.60
2022-08-17T15:02:13.741Z,5.50
2022-08-17T15:04:45.363Z,5.30
2022-08-17T15:07:12.387Z,6.10
2022-08-17T15:09:39.263Z,5.40
2022-08-17T15:12:06.597Z,5.30
2022-08-17T15:14:35.406Z,5.33
2022-08-17T15:17:03.240Z,5.63
2022-08-17T15:19:30.127Z,6.50
2022-08-17T15:21:56.796Z,6.70
2022-08-17T15:24:23.507Z,6.10
2022-08-17T15:26:50.526Z,6.43
2022-08-17T15:29:17.327Z,6.20
2022-08-17T15:31:44.051Z,7.37
2022-08-17T15:34:10.741Z,7.37
2022-08-17T15:36:37.666Z,7.80
2022-08-17T15:39:07.310Z,8.77
2022-08-17T15:41:34.511Z,8.07
2022-08-17T15:44:01.228Z,7.60
2022-08-17T15:46:28.121Z,8.87
2022-08-17T15:48:58.900Z,8.30
2022-08-17T15:51:28.747Z,8.57
2022-08-17T15:54:04.547Z,8.10
2022-08-17T15:56:46.170Z,8.40
2022-08-17T15:59:12.898Z,8.77
2022-08-17T16:03:14.735Z,8.10
2022-08-17T16:04:30.900Z,7.47
2022-08-17T16:06:59.581Z,7.73
2022-08-17T16:09:26.347Z,8.47
2022-08-17T16:11:55.741Z,8.20
2022-08-17T16:14:30.251Z,8.37
2022-08-17T16:17:01.513Z,8.10
2022-08-17T16:19:28.229Z,7.50
2022-08-17T16:21:54.865Z,8.00
2022-08-17T16:24:21.511Z,7.70
2022-08-17T16:26:48.170Z,7.93
2022-08-17T16:29:14.823Z,8.23
2022-08-17T16:31:42.428Z,8.30
2022-08-17T16:34:16.796Z,7.77
2022-08-17T16:36:53.589Z,7.73
2022-08-17T16:39:23.175Z,7.30
2022-08-17T16:41:50.288Z,7.40
2022-08-17T16:44:19.208Z,7.17
2022-08-17T16:46:47.080Z,6.73
2022-08-17T16:49:35.749Z,7.23
2022-08-17T16:52:03.012Z,7.17
2022-08-17T16:54:29.778Z,7.07
2022-08-17T16:56:56.449Z,6.03
2022-08-17T16:59:31.302Z,6.63
2022-08-17T17:02:11.215Z,6.70
2022-08-17T17:04:59.991Z,8.20
2022-08-17T17:07:50.919Z,7.20
2022-08-17T17:10:22.475Z,6.67
2022-08-17T17:13:02.489Z,6.90
2022-08-17T17:16:03.370Z,6.60
2022-08-17T17:18:41.621Z,7.40
2022-08-17T17:21:14.543Z,6.83
2022-08-17T17:23:56.340Z,5.83
2022-08-17T17:26:28.905Z,6.47
2022-08-17T17:29:08.174Z,7.13
2022-08-17T17:31:50.827Z,6.43
2022-08-17T17:34:17.880Z,6.47
2022-08-17T17:36:50.721Z,6.70
2022-08-17T17:39:36.195Z,6.53
2022-08-17T17:42:07.599Z,6.87
2022-08-17T17:44:39.034Z,6.00
2022-08-17T17:47:05.929Z,6.60
2022-08-17T17:49:43.884Z,5.83
2022-08-17T17:52:28.991Z,7.03
2022-08-17T17:55:29.904Z,6.80
2022-08-17T17:58:19.718Z,5.30
2022-08-17T18:01:01.409Z,6.93
2022-08-17T18:03:50.779Z,6.93
2022-08-17T18:06:49.878Z,6.33
2022-08-17T18:09:27.283Z,6.20
2022-08-17T18:12:03.316Z,6.30
2022-08-17T18:14:37.181Z,6.57
2022-08-17T18:17:04.026Z,7.37
2022-08-17T18:19:31.503Z,7.50
2022-08-17T18:22:14.376Z,6.20
2022-08-17T18:24:44.693Z,6.70
2022-08-17T18:27:32.194Z,7.23
2022-08-17T18:30:07.105Z,6.80
2022-08-17T18:32:42.048Z,6.00
2022-08-17T18:35:08.635Z,6.63
2022-08-17T18:37:40.124Z,5.07
2022-08-17T18:40:21.521Z,5.37
2022-08-17T18:43:09.058Z,4.57
2022-08-17T18:45:48.686Z,4.50
2022-08-17T18:48:29.832Z,4.47
2022-08-17T18:51:21.444Z,5.00
2022-08-17T18:54:22.973Z,5.70
2022-08-17T18:56:51.855Z,5.27
2022-08-17T18:59:44.820Z,6.53
2022-08-17T19:05:01.124Z,5.73
2022-08-17T19:07:37.995Z,5.07
2022-08-17T19:10:46.161Z,5.57
2022-08-17T19:13:24.403Z,5.13
2022-08-17T19:16:11.528Z,6.20
2022-08-17T19:19:14.292Z,5.40
2022-08-17T19:21:46.542Z,6.97
2022-08-17T19:24:26.386Z,7.50
2022-08-17T19:27:06.446Z,7.07
2022-08-17T19:29:53.661Z,6.27
2022-08-17T19:32:25.425Z,7.90
2022-08-17T19:34:52.788Z,6.97
2022-08-17T19:37:27.195Z,7.53
2022-08-17T19:43:43.182Z,7.00
2022-08-17T19:46:39.289Z,6.20
2022-08-17T19:49:41.663Z,6.73
2022-08-17T19:52:20.556Z,7.20
2022-08-17T19:54:57.454Z,6.87
2022-08-17T19:57:32.770Z,7.13
2022-08-17T20:00:13.028Z,7.23
2022-08-17T20:03:05.865Z,7.70
2022-08-17T20:06:08.798Z,7.10
2022-08-17T20:08:31.388Z,7.50
2022-08-17T20:11:14.916Z,7.60
2022-08-17T20:13:49.041Z,6.40
2022-08-17T20:16:17.495Z,7.87
2022-08-17T20:19:04.701Z,8.00
2022-08-17T20:21:42.439Z,8.27
2022-08-17T20:24:21.225Z,12.27
2022-08-17T20:26:58.461Z,9.30
2022-08-17T20:29:54.986Z,8.53
2022-08-17T20:32:31.106Z,7.93
2022-08-17T20:35:27.068Z,7.83
2022-08-17T20:38:02.715Z,8.50
2022-08-17T20:40:31.490Z,8.10
2022-08-17T20:42:59.254Z,7.70
2022-08-17T20:45:26.258Z,8.40
2022-08-17T20:48:30.500Z,7.53
2022-08-17T20:50:55.964Z,7.07
2022-08-17T20:53:47.533Z,8.80
2022-08-17T20:56:46.977Z,6.93
2022-08-17T20:59:25.764Z,7.30
2022-08-17T21:02:18.604Z,7.43
2022-08-17T21:05:00.163Z,6.90
2022-08-17T21:07:50.963Z,7.20
2022-08-17T21:10:23.873Z,7.50
2022-08-17T21:12:59.357Z,6.50
2022-08-17T21:15:30.998Z,7.60
2022-08-17T21:18:10.543Z,6.70
2022-08-17T21:21:08.007Z,6.47
2022-08-17T21:24:02.511Z,6.90
2022-08-17T21:26:50.429Z,6.03
2022-08-17T21:29:31.270Z,6.37
2022-08-17T21:31:59.642Z,6.40
2022-08-17T21:34:36.063Z,6.17
2022-08-17T21:37:23.673Z,6.90
2022-08-17T21:40:18.289Z,6.57
2022-08-17T21:42:53.921Z,6.00
2022-08-17T21:45:35.653Z,6.93
2022-08-17T21:48:15.271Z,5.87
2022-08-17T21:50:45.841Z,5.40
2022-08-17T21:53:22.717Z,5.67
2022-08-17T21:55:51.520Z,5.90
2022-08-17T21:58:30.864Z,5.80
2022-08-17T22:01:34.450Z,5.53
2022-08-17T22:04:04.019Z,5.30
2022-08-17T22:06:40.843Z,5.40
2022-08-17T22:09:21.072Z,6.17
2022-08-17T22:11:52.797Z,5.90
2022-08-17T22:14:22.587Z,6.13
2022-08-17T22:17:09.638Z,6.50
2022-08-17T22:19:37.750Z,6.30
2022-08-17T22:22:27.871Z,5.33
2022-08-17T22:24:57.745Z,5.47
2022-08-17T22:27:49.825Z,5.37
2022-08-17T22:30:33.891Z,5.20
2022-08-17T22:33:21.447Z,5.23
2022-08-17T22:35:48.205Z,6.37
2022-08-17T22:38:20.864Z,6.20
2022-08-17T22:40:51.733Z,5.40
2022-08-17T22:43:25.965Z,5.63
2022-08-17T22:45:56.654Z,5.50
2022-08-17T22:48:27.816Z,5.00
2022-08-17T22:51:13.427Z,4.57
2022-08-17T22:54:34.063Z,4.93
2022-08-17T22:57:22.363Z,5.60
2022-08-17T22:59:55.463Z,5.10
2022-08-17T23:02:22.329Z,5.20
2022-08-17T23:05:10.125Z,5.37
2022-08-17T23:07:37.147Z,5.13
2022-08-17T23:10:06.399Z,5.20
2022-08-17T23:12:38.824Z,5.13
2022-08-17T23:15:14.262Z,4.57
2022-08-17T23:17:41.926Z,4.40
2022-08-17T23:20:12.570Z,4.23
2022-08-17T23:22:44.668Z,4.47
2022-08-17T23:25:29.062Z,4.10
2022-08-17T23:27:57.555Z,4.20
2022-08-17T23:30:25.664Z,3.40
2022-08-17T23:32:54.279Z,3.30
2022-08-17T23:35:39.575Z,5.13
2022-08-17T23:38:09.283Z,3.50
2022-08-17T23:40:37.670Z,3.30
2022-08-17T23:43:17.387Z,2.90
2022-08-17T23:45:52.199Z,3.23
2022-08-17T23:48:28.555Z,3.60
2022-08-17T23:51:10.800Z,3.10
2022-08-17T23:53:42.472Z,2.97
2022-08-17T23:56:11.285Z,3.00
2022-08-17T23:58:42.298Z,3.70
